createdAt,value
2022-12-08T00:01:34.590Z,30.45
2022-12-08T00:04:58.112Z,30.55
2022-12-08T00:08:19.704Z,27.62
2022-12-08T00:11:23.065Z,25.00
2022-12-08T00:14:33.458Z,29.08
2022-12-08T00:17:36.785Z,22.23
2022-12-08T00:20:39.510Z,25.17
2022-12-08T00:23:42.534Z,23.80
2022-12-08T00:26:45.460Z,26.37
2022-12-08T00:29:50.143Z,23.42
2022-12-08T00:33:13.017Z,30.20
2022-12-08T00:36:16.558Z,28.85
2022-12-08T00:39:19.573Z,36.15
2022-12-08T00:42:22.680Z,27.20
2022-12-08T00:45:25.357Z,28.25
2022-12-08T00:48:28.723Z,18.80
2022-12-08T00:51:32.108Z,23.77
2022-12-08T00:54:35.550Z,27.17
2022-12-08T00:57:38.240Z,22.40
2022-12-08T01:00:42.911Z,20.62
2022-12-08T01:03:45.889Z,22.67
2022-12-08T01:06:49.792Z,27.45
2022-12-08T01:09:54.321Z,21.23
2022-12-08T01:12:58.817Z,26.80
2022-12-08T01:16:01.732Z,25.67
2022-12-08T01:19:05.020Z,22.80
2022-12-08T01:22:08.265Z,21.73
2022-12-08T01:25:11.487Z,21.00
2022-12-08T01:28:14.183Z,17.83
2022-12-08T01:31:20.250Z,19.30
2022-12-08T01:34:23.041Z,27.98
2022-12-08T01:37:26.417Z,21.85
2022-12-08T01:40:29.345Z,22.37
2022-12-08T01:43:49.613Z,22.33
2022-12-08T01:46:54.388Z,26.45
2022-12-08T01:49:58.369Z,18.42
2022-12-08T01:53:35.376Z,22.10
2022-12-08T01:57:16.072Z,27.27
2022-12-08T02:00:21.697Z,20.37
2022-12-08T02:03:51.841Z,18.52
2022-12-08T02:06:54.978Z,17.42
2022-12-08T02:10:01.119Z,23.20
2022-12-08T02:13:06.313Z,19.60
2022-12-08T02:16:12.188Z,17.08
2022-12-08T02:19:36.538Z,17.90
2022-12-08T02:23:08.305Z,18.83
2022-12-08T02:26:44.897Z,16.62
2022-12-08T02:29:57.124Z,17.37
2022-12-08T02:33:18.693Z,16.50
2022-12-08T02:36:48.936Z,16.65
2022-12-08T02:40:12.228Z,16.37
2022-12-08T02:43:25.148Z,16.90
2022-12-08T02:46:33.952Z,21.55
2022-12-08T02:49:37.000Z,17.70
2022-12-08T02:52:42.569Z,19.65
2022-12-08T02:55:48.358Z,17.85
2022-12-08T02:58:57.856Z,17.12
2022-12-08T03:02:01.186Z,21.45
2022-12-08T03:05:13.733Z,19.20
2022-12-08T03:08:33.229Z,18.30
2022-12-08T03:11:53.353Z,27.25
2022-12-08T03:15:04.013Z,21.90
2022-12-08T03:21:14.619Z,19.98
2022-12-08T03:24:18.829Z,16.48
2022-12-08T03:27:24.965Z,16.87
2022-12-08T03:30:36.893Z,19.12
2022-12-08T03:33:44.905Z,22.85
2022-12-08T03:36:51.980Z,20.88
2022-12-08T03:39:55.584Z,17.25
2022-12-08T03:42:58.368Z,22.25
2022-12-08T03:46:01.411Z,16.50
2022-12-08T03:49:04.157Z,22.08
2022-12-08T03:52:07.221Z,19.45
2022-12-08T03:55:10.277Z,23.33
2022-12-08T03:58:13.208Z,19.75
2022-12-08T04:01:15.880Z,24.30
2022-12-08T04:04:19.164Z,17.08
2022-12-08T04:07:21.749Z,19.70
2022-12-08T04:10:24.764Z,16.12
2022-12-08T04:13:27.739Z,18.75
2022-12-08T04:16:30.845Z,17.65
2022-12-08T04:19:33.504Z,17.95
2022-12-08T04:22:56.332Z,19.48
2022-12-08T04:25:59.091Z,18.23
2022-12-08T04:29:21.987Z,18.45
2022-12-08T04:32:24.721Z,21.05
2022-12-08T04:35:28.565Z,17.80
2022-12-08T04:38:31.621Z,19.55
2022-12-08T04:41:36.323Z,18.67
2022-12-08T04:44:58.850Z,19.48
2022-12-08T04:48:02.958Z,20.05
2022-12-08T04:51:06.341Z,20.23
2022-12-08T04:54:29.252Z,24.05
2022-12-08T04:57:36.296Z,19.00
2022-12-08T05:00:40.940Z,21.62
2022-12-08T05:03:51.953Z,20.20
2022-12-08T05:06:56.171Z,21.30
2022-12-08T05:10:00.213Z,20.45
2022-12-08T05:13:11.978Z,26.25
2022-12-08T05:16:16.507Z,18.73
2022-12-08T05:19:22.922Z,26.20
2022-12-08T05:22:45.595Z,18.42
2022-12-08T05:25:49.513Z,20.95
2022-12-08T05:28:56.817Z,22.10
2022-12-08T05:32:00.291Z,19.83
2022-12-08T05:35:04.485Z,21.00
2022-12-08T05:38:18.285Z,18.27
2022-12-08T05:41:21.714Z,20.02
2022-12-08T05:44:27.111Z,24.40
2022-12-08T05:47:36.011Z,25.52
2022-12-08T05:50:59.420Z,29.00
2022-12-08T05:54:02.246Z,21.00
2022-12-08T05:57:25.305Z,33.13
2022-12-08T06:00:49.388Z,26.80
2022-12-08T06:04:18.124Z,28.70
2022-12-08T06:07:43.119Z,22.40
2022-12-08T06:11:06.004Z,25.08
2022-12-08T06:14:12.684Z,29.48
2022-12-08T06:17:18.584Z,23.38
2022-12-08T06:20:43.186Z,22.98
2022-12-08T06:23:51.703Z,21.00
2022-12-08T06:26:54.343Z,27.67
2022-12-08T06:29:57.841Z,24.60
2022-12-08T06:33:00.564Z,31.98
2022-12-08T06:36:05.280Z,24.80
2022-12-08T06:39:09.979Z,26.70
2022-12-08T06:42:31.728Z,25.55
2022-12-08T06:46:16.621Z,24.30
2022-12-08T06:49:36.266Z,24.55
2022-12-08T06:52:49.302Z,25.25
2022-12-08T06:56:02.106Z,20.48
2022-12-08T06:59:05.215Z,19.83
2022-12-08T07:02:16.059Z,22.25
2022-12-08T07:05:18.804Z,21.70
2022-12-08T07:08:25.326Z,22.25
2022-12-08T07:11:28.485Z,25.83
2022-12-08T07:14:31.489Z,19.17
2022-12-08T07:17:34.191Z,26.75
2022-12-08T07:20:37.411Z,26.87
2022-12-08T07:23:40.562Z,22.73
2022-12-08T07:26:43.807Z,19.67
2022-12-08T07:29:46.487Z,23.02
2022-12-08T07:32:51.716Z,19.20
2022-12-08T07:36:14.411Z,19.85
2022-12-08T07:39:22.596Z,16.42
2022-12-08T07:42:25.331Z,12.50
2022-12-08T07:45:48.922Z,17.17
2022-12-08T07:49:11.673Z,20.88
2022-12-08T07:52:18.455Z,18.00
2022-12-08T07:55:21.317Z,19.95
2022-12-08T07:58:42.322Z,7.78
2022-12-08T08:02:23.351Z,18.17
2022-12-08T08:05:27.639Z,18.75
2022-12-08T08:08:30.765Z,15.75
2022-12-08T08:12:22.317Z,11.25
2022-12-08T08:15:36.603Z,10.70
2022-12-08T08:18:59.578Z,16.00
2022-12-08T08:22:03.474Z,11.90
2022-12-08T08:25:06.851Z,13.43
2022-12-08T08:28:27.547Z,12.73
2022-12-08T08:31:50.491Z,22.15
2022-12-08T08:35:13.175Z,21.58
2022-12-08T08:38:16.950Z,22.75
2022-12-08T08:41:20.018Z,27.55
2022-12-08T08:44:28.265Z,18.25
2022-12-08T08:47:30.976Z,14.40
2022-12-08T08:50:54.655Z,24.63
2022-12-08T08:53:58.389Z,22.00
2022-12-08T08:57:02.317Z,18.37
2022-12-08T09:00:07.224Z,21.48
2022-12-08T09:03:14.211Z,25.08
2022-12-08T09:06:18.021Z,22.77
2022-12-08T09:09:41.111Z,22.90
2022-12-08T09:12:43.883Z,22.87
2022-12-08T09:15:47.317Z,27.13
2022-12-08T09:18:50.175Z,21.90
2022-12-08T09:21:53.357Z,22.08
2022-12-08T09:24:56.154Z,18.80
2022-12-08T09:28:00.002Z,18.87
2022-12-08T09:31:02.863Z,20.35
2022-12-08T09:34:05.996Z,21.10
2022-12-08T09:37:09.381Z,24.92
2022-12-08T09:40:20.196Z,18.98
2022-12-08T09:43:38.124Z,23.45
2022-12-08T09:46:52.589Z,18.60
2022-12-08T10:35:07.564Z,14.63
2022-12-08T10:38:23.194Z,15.75
2022-12-08T10:41:25.902Z,13.85
2022-12-08T10:44:29.432Z,13.45
2022-12-08T10:47:38.903Z,11.57
2022-12-08T10:50:43.546Z,14.27
2022-12-08T10:53:47.127Z,12.10
2022-12-08T10:56:55.135Z,20.00
2022-12-08T10:59:57.835Z,9.38
2022-12-08T11:03:03.616Z,11.38
2022-12-08T11:06:16.564Z,6.47
2022-12-08T11:09:19.609Z,16.85
2022-12-08T11:12:28.218Z,12.75
2022-12-08T11:16:31.598Z,7.87
2022-12-08T11:19:59.256Z,12.27
2022-12-08T11:24:33.423Z,6.85
2022-12-08T11:28:11.370Z,12.63
2022-12-08T11:31:34.740Z,18.25
2022-12-08T11:35:02.512Z,14.63
2022-12-08T11:38:23.976Z,10.98
2022-12-08T11:41:41.105Z,19.70
2022-12-08T11:44:58.848Z,16.10
2022-12-08T11:48:21.389Z,11.73
2022-12-08T11:51:42.777Z,21.77
2022-12-08T11:55:15.934Z,7.62
2022-12-08T11:58:42.440Z,8.85
2022-12-08T12:01:45.198Z,14.60
2022-12-08T12:04:56.489Z,9.65
2022-12-08T12:08:14.720Z,14.02
2022-12-08T12:12:03.173Z,13.52
2022-12-08T12:15:24.343Z,13.15
2022-12-08T12:18:32.913Z,16.40
2022-12-08T12:21:56.383Z,18.80
2022-12-08T12:24:59.292Z,14.80
2022-12-08T12:28:06.600Z,18.17
2022-12-08T12:31:17.891Z,16.60
2022-12-08T12:34:25.537Z,10.05
2022-12-08T12:37:39.300Z,10.70
2022-12-08T12:40:42.713Z,11.30
2022-12-08T12:44:11.919Z,15.52
2022-12-08T12:47:56.337Z,17.60
2022-12-08T12:51:00.085Z,12.77
2022-12-08T12:54:26.691Z,15.10
2022-12-08T12:57:50.351Z,14.60
2022-12-08T13:01:13.091Z,13.90
2022-12-08T13:04:17.789Z,18.60
2022-12-08T13:07:23.018Z,33.20
2022-12-08T13:10:40.410Z,18.27
2022-12-08T13:14:38.860Z,11.88
2022-12-08T13:18:40.526Z,17.05
2022-12-08T13:22:54.202Z,15.88
2022-12-08T13:27:06.189Z,16.80
2022-12-08T13:30:41.172Z,12.50
2022-12-08T13:33:44.475Z,15.60
2022-12-08T13:37:02.631Z,18.23
2022-12-08T13:40:15.308Z,16.90
2022-12-08T13:43:38.737Z,20.50
2022-12-08T13:47:24.554Z,14.65
2022-12-08T13:57:35.294Z,28.60
2022-12-08T14:00:39.297Z,22.85
2022-12-08T14:04:21.702Z,20.45
2022-12-08T14:07:14.187Z,20.98
2022-12-08T14:10:24.715Z,22.58
2022-12-08T14:13:27.436Z,21.40
2022-12-08T14:16:41.054Z,27.62
2022-12-08T14:19:52.393Z,19.30
2022-12-08T14:22:56.511Z,18.15
2022-12-08T14:25:59.252Z,21.77
2022-12-08T14:29:02.568Z,23.38
2022-12-08T14:32:19.588Z,20.08
2022-12-08T14:35:28.832Z,19.55
2022-12-08T14:38:31.801Z,24.15
2022-12-08T14:41:35.002Z,14.52
2022-12-08T14:44:39.680Z,27.27
2022-12-08T14:47:51.593Z,19.42
2022-12-08T14:50:57.696Z,21.25
2022-12-08T14:54:07.344Z,20.67
2022-12-08T14:57:14.461Z,20.60
2022-12-08T15:00:22.178Z,19.52
2022-12-08T15:03:27.761Z,20.70
2022-12-08T15:06:30.967Z,24.25
2022-12-08T15:09:39.374Z,14.30
2022-12-08T15:13:04.977Z,17.80
2022-12-08T15:16:32.095Z,19.48
2022-12-08T15:19:35.318Z,21.33
2022-12-08T15:22:39.057Z,19.15
2022-12-08T15:25:42.082Z,19.50
2022-12-08T15:28:44.879Z,20.80
2022-12-08T15:31:49.341Z,15.45
2022-12-08T15:34:52.302Z,21.87
2022-12-08T15:38:55.723Z,20.77
2022-12-08T15:42:38.501Z,22.52
2022-12-08T15:46:21.766Z,28.83
2022-12-08T15:50:21.083Z,30.73
2022-12-08T15:54:33.048Z,21.33
2022-12-08T15:58:30.867Z,23.15
2022-12-08T16:00:58.905Z,30.92
2022-12-08T16:07:29.997Z,23.52
2022-12-08T16:11:08.438Z,27.55
2022-12-08T16:14:09.495Z,20.08
2022-12-08T16:17:21.359Z,21.90
2022-12-08T16:20:44.039Z,25.62
2022-12-08T16:23:48.473Z,19.30
2022-12-08T16:30:17.187Z,21.25
2022-12-08T16:33:20.008Z,19.17
2022-12-08T16:36:23.057Z,20.65
2022-12-08T16:39:25.893Z,18.77
2022-12-08T16:42:39.780Z,19.52
2022-12-08T16:45:45.063Z,22.20
2022-12-08T16:48:48.312Z,36.42
2022-12-08T16:51:50.948Z,16.02
2022-12-08T16:54:53.991Z,20.98
2022-12-08T16:57:56.819Z,25.45
2022-12-08T17:00:59.843Z,22.10
2022-12-08T17:07:28.230Z,19.98
2022-12-08T17:10:34.410Z,13.13
2022-12-08T17:13:41.223Z,9.13
2022-12-08T17:16:44.637Z,18.80
2022-12-08T17:19:47.760Z,19.90
2022-12-08T17:22:55.364Z,10.90
2022-12-08T17:26:00.079Z,23.17
2022-12-08T17:29:04.462Z,22.27
2022-12-08T17:32:07.674Z,17.37
2022-12-08T17:35:11.465Z,15.05
2022-12-08T17:38:15.009Z,15.40
2022-12-08T17:41:18.061Z,20.15
2022-12-08T17:44:21.398Z,15.90
2022-12-08T17:47:24.137Z,16.90
2022-12-08T17:50:27.133Z,17.23
2022-12-08T17:53:35.762Z,21.75
2022-12-08T17:59:42.902Z,16.37
2022-12-08T18:02:46.000Z,20.70
2022-12-08T18:05:49.470Z,19.25
2022-12-08T18:08:52.275Z,17.75
2022-12-08T18:11:55.454Z,24.70
2022-12-08T18:14:58.444Z,14.93
2022-12-08T18:18:01.942Z,27.83
2022-12-08T18:21:05.079Z,15.63
2022-12-08T18:24:15.223Z,13.10
2022-12-08T18:27:18.145Z,17.77
2022-12-08T18:30:21.556Z,20.67
2022-12-08T18:33:24.352Z,22.77
2022-12-08T18:36:27.511Z,24.25
2022-12-08T18:39:32.471Z,26.12
2022-12-08T18:42:35.592Z,23.35
2022-12-08T18:45:39.793Z,21.08
2022-12-08T18:48:47.277Z,22.45
2022-12-08T18:51:50.113Z,24.02
2022-12-08T18:55:08.824Z,25.17
2022-12-08T18:58:15.151Z,28.30
2022-12-08T19:01:18.471Z,29.70
2022-12-08T19:04:29.440Z,31.62
2022-12-08T19:07:32.975Z,33.83
2022-12-08T19:10:38.276Z,30.65
2022-12-08T19:13:44.143Z,35.47
2022-12-08T19:16:46.825Z,35.47
2022-12-08T19:19:50.008Z,31.80
2022-12-08T19:22:53.090Z,30.12
2022-12-08T19:25:56.074Z,28.10
2022-12-08T19:28:58.981Z,30.73
2022-12-08T19:32:05.131Z,31.60
2022-12-08T19:35:08.395Z,30.45
2022-12-08T19:38:11.501Z,32.67
2022-12-08T19:41:33.391Z,28.10
2022-12-08T19:45:08.982Z,30.77
2022-12-08T19:48:14.071Z,29.00
2022-12-08T19:51:17.187Z,27.58
2022-12-08T19:54:19.924Z,30.73
2022-12-08T19:57:22.904Z,24.63
2022-12-08T20:00:25.713Z,21.95
2022-12-08T20:03:28.973Z,24.80
2022-12-08T20:06:31.760Z,28.77
2022-12-08T20:09:34.851Z,26.60
2022-12-08T20:12:38.423Z,26.65
2022-12-08T20:15:41.767Z,27.20
2022-12-08T20:18:44.718Z,23.05
2022-12-08T20:21:48.499Z,26.00
2022-12-08T20:24:57.366Z,19.80
2022-12-08T20:28:02.427Z,22.00
2022-12-08T20:31:05.323Z,25.50
2022-12-08T20:34:14.164Z,25.20
2022-12-08T20:37:16.863Z,25.10
2022-12-08T20:40:20.710Z,24.85
2022-12-08T20:43:24.058Z,27.65
2022-12-08T20:46:26.982Z,20.85
2022-12-08T20:49:34.390Z,27.17
2022-12-08T20:52:40.609Z,20.75
2022-12-08T20:55:43.444Z,18.25
2022-12-08T20:58:47.359Z,23.25
2022-12-08T21:01:52.511Z,25.70
2022-12-08T21:04:55.549Z,16.70
2022-12-08T21:07:58.561Z,21.37
2022-12-08T21:11:01.699Z,29.10
2022-12-08T21:14:04.790Z,32.85
2022-12-08T21:17:08.239Z,26.17
2022-12-08T21:20:11.614Z,25.05
2022-12-08T21:23:16.282Z,24.05
2022-12-08T21:26:21.759Z,29.25
2022-12-08T21:29:24.643Z,28.23
2022-12-08T21:32:30.356Z,23.48
2022-12-08T21:35:33.866Z,29.08
2022-12-08T21:38:37.843Z,23.40
2022-12-08T21:41:59.501Z,28.12
2022-12-08T21:45:02.425Z,24.60
2022-12-08T21:48:11.442Z,27.50
2022-12-08T21:51:14.827Z,27.58
2022-12-08T21:54:19.221Z,23.77
2022-12-08T21:57:22.484Z,18.95
2022-12-08T22:00:26.449Z,24.23
2022-12-08T22:03:29.952Z,23.25
2022-12-08T22:06:32.969Z,24.12
2022-12-08T22:09:36.358Z,23.90
2022-12-08T22:12:39.210Z,26.33
2022-12-08T22:15:42.227Z,26.15
2022-12-08T22:18:45.157Z,18.45
2022-12-08T22:21:48.191Z,23.25
2022-12-08T22:24:50.849Z,22.48
2022-12-08T22:27:53.918Z,24.50
2022-12-08T22:30:56.649Z,26.73
2022-12-08T22:34:00.097Z,26.12
2022-12-08T22:37:02.617Z,22.52
2022-12-08T22:40:06.787Z,25.92
2022-12-08T22:43:09.675Z,22.27
2022-12-08T22:46:24.393Z,24.00
2022-12-08T22:49:28.991Z,22.08
2022-12-08T22:52:31.787Z,23.33
2022-12-08T22:55:34.382Z,28.50
2022-12-08T22:58:38.691Z,22.58
2022-12-08T23:01:43.357Z,24.33
2022-12-08T23:04:46.555Z,30.30
2022-12-08T23:07:50.843Z,26.23
2022-12-08T23:10:54.687Z,23.27
2022-12-08T23:14:00.641Z,25.88
2022-12-08T23:17:03.891Z,21.75
2022-12-08T23:20:07.591Z,28.60
2022-12-08T23:23:11.084Z,24.98
2022-12-08T23:26:18.630Z,23.02
2022-12-08T23:29:21.805Z,26.75
2022-12-08T23:32:24.869Z,28.38
2022-12-08T23:35:28.029Z,24.12
2022-12-08T23:38:30.854Z,24.90
2022-12-08T23:41:33.839Z,23.95
2022-12-08T23:44:36.634Z,29.60
2022-12-08T23:47:39.533Z,26.50
2022-12-08T23:50:42.322Z,17.27
2022-12-08T23:53:46.050Z,25.12
2022-12-08T23:56:48.825Z,24.37
2022-12-08T23:59:51.724Z,22.92
